Time;durP1;ratioP1;P1;durP2;ratioP2;P2;SDS_P1;SDS_P2;PMS_P1;PMS_P2;Temp;Humidity;BMP_temperature;BMP_pressure;BME280_temperature;BME280_humidity;BME280_pressure;Samples;Min_cycle;Max_cycle;Signal;HPM_P1;HPM_P2
2023/08/19 00:00:13;;;;;;;3.72;2.38;;;21.60;65.10;;;;;;5071080;28;20043;-62
2023/08/19 00:02:39;;;;;;;2.30;2.10;;;21.50;64.40;;;;;;5069949;28;20403;-62
2023/08/19 00:05:05;;;;;;;6.43;2.28;;;21.50;64.50;;;;;;5063272;28;20040;-62
2023/08/19 00:07:31;;;;;;;7.07;2.45;;;21.50;64.70;;;;;;5064353;28;20036;-62
2023/08/19 00:09:57;;;;;;;3.53;2.33;;;21.50;64.80;;;;;;5062235;28;20530;-63
2023/08/19 00:12:23;;;;;;;7.15;2.25;;;21.50;64.90;;;;;;5070827;28;20062;-62
2023/08/19 00:14:49;;;;;;;5.72;1.83;;;21.40;64.90;;;;;;5059834;28;20229;-62
2023/08/19 00:17:16;;;;;;;2.80;2.22;;;21.40;64.90;;;;;;5067472;28;20170;-63
2023/08/19 00:19:41;;;;;;;4.97;2.00;;;21.40;65.10;;;;;;5066044;28;20036;-63
2023/08/19 00:22:07;;;;;;;3.15;2.38;;;21.40;65.10;;;;;;5066897;28;20036;-64
2023/08/19 00:24:33;;;;;;;3.70;2.00;;;21.40;65.10;;;;;;5065293;28;20019;-63
2023/08/19 00:27:01;;;;;;;6.22;2.28;;;21.40;65.30;;;;;;5070001;28;20095;-64
2023/08/19 00:29:26;;;;;;;4.47;2.38;;;21.30;65.20;;;;;;5065338;28;20402;-63
2023/08/19 00:31:52;;;;;;;2.85;1.70;;;21.30;65.30;;;;;;5065441;28;20028;-63
2023/08/19 00:34:17;;;;;;;4.07;2.22;;;21.30;65.20;;;;;;5060539;28;20032;-63
2023/08/19 00:36:43;;;;;;;6.13;2.40;;;21.20;65.20;;;;;;5063847;28;20028;-62
2023/08/19 00:39:09;;;;;;;8.13;2.00;;;21.20;65.30;;;;;;5064501;28;20044;-63
2023/08/19 00:41:34;;;;;;;3.70;2.00;;;21.20;65.40;;;;;;5064767;28;20025;-63
2023/08/19 00:44:00;;;;;;;3.92;2.13;;;21.20;65.50;;;;;;5072198;28;20027;-62
2023/08/19 00:46:26;;;;;;;3.15;2.10;;;21.20;65.40;;;;;;5064708;28;20028;-63
2023/08/19 00:48:52;;;;;;;3.90;2.05;;;21.10;65.40;;;;;;5072073;28;20081;-62
2023/08/19 00:51:18;;;;;;;2.40;2.13;;;21.10;65.50;;;;;;5068362;28;20083;-62
2023/08/19 00:53:45;;;;;;;2.80;2.15;;;21.10;65.70;;;;;;5064498;28;20024;-62
2023/08/19 00:56:10;;;;;;;4.38;2.03;;;21.00;65.70;;;;;;5062148;28;20032;-62
2023/08/19 00:58:36;;;;;;;3.90;1.92;;;21.00;65.80;;;;;;5059537;28;20486;-62
2023/08/19 01:01:02;;;;;;;8.73;2.38;;;21.00;65.90;;;;;;5057945;28;20035;-63
2023/08/19 01:03:27;;;;;;;7.88;2.20;;;21.00;66.70;;;;;;5058332;28;20039;-63
2023/08/19 01:06:28;;;;;;;4.80;2.33;;;21.00;66.00;;;;;;5058110;28;20376;-62
2023/08/19 01:09:18;;;;;;;3.60;1.85;;;20.90;66.80;;;;;;5060741;28;20056;-63
2023/08/19 01:12:04;;;;;;;3.55;1.90;;;20.90;66.40;;;;;;5058066;28;20032;-63
2023/08/19 01:15:00;;;;;;;4.85;2.38;;;20.90;66.40;;;;;;5063721;28;20040;-63
2023/08/19 01:17:29;;;;;;;3.20;1.90;;;20.90;66.80;;;;;;5062373;28;20085;-62
2023/08/19 01:19:57;;;;;;;2.85;1.90;;;20.80;66.00;;;;;;5053412;28;20037;-62
2023/08/19 01:22:43;;;;;;;4.60;2.13;;;20.80;66.00;;;;;;5064607;28;20045;-63
2023/08/19 01:25:10;;;;;;;2.60;2.05;;;20.80;67.00;;;;;;5069621;28;20682;-62
2023/08/19 01:27:36;;;;;;;8.88;2.28;;;20.70;66.00;;;;;;5066999;28;20120;-63
2023/08/19 01:30:02;;;;;;;5.85;2.28;;;20.70;66.20;;;;;;5069263;28;20051;-63
2023/08/19 01:32:28;;;;;;;4.25;1.92;;;20.70;66.40;;;;;;5069341;28;20039;-62
2023/08/19 01:34:55;;;;;;;7.15;2.55;;;20.70;66.50;;;;;;5067403;28;20028;-64
2023/08/19 01:37:44;;;;;;;3.03;2.10;;;20.60;66.60;;;;;;5059003;28;20036;-62
2023/08/19 01:40:13;;;;;;;2.30;2.10;;;20.60;67.50;;;;;;5069877;28;20040;-63
2023/08/19 01:42:40;;;;;;;5.13;2.03;;;20.60;66.50;;;;;;5072466;28;20376;-62
2023/08/19 01:45:07;;;;;;;4.40;2.50;;;20.60;66.60;;;;;;5066529;28;20128;-63
2023/08/19 01:47:38;;;;;;;3.85;2.15;;;20.60;66.70;;;;;;5066447;28;20035;-62
2023/08/19 01:50:06;;;;;;;5.80;2.47;;;20.50;66.80;;;;;;5063403;28;20028;-63
2023/08/19 01:52:32;;;;;;;4.72;1.80;;;20.50;66.80;;;;;;5067719;28;20060;-62
2023/08/19 01:54:58;;;;;;;5.43;2.20;;;20.50;66.80;;;;;;5069820;28;20028;-63
2023/08/19 01:57:27;;;;;;;6.70;2.13;;;20.50;66.70;;;;;;5068849;28;20293;-63
2023/08/19 01:59:54;;;;;;;3.33;2.22;;;20.50;66.80;;;;;;5077680;28;20095;-62
2023/08/19 02:02:21;;;;;;;4.45;2.28;;;20.40;66.70;;;;;;5070518;28;20017;-63
2023/08/19 02:04:47;;;;;;;5.18;2.40;;;20.50;66.80;;;;;;5067861;28;20036;-62
2023/08/19 02:07:12;;;;;;;6.13;2.38;;;20.50;66.80;;;;;;5066631;28;20021;-63
2023/08/19 02:09:39;;;;;;;2.30;1.88;;;20.40;66.70;;;;;;5069153;28;20079;-63
2023/08/19 02:12:05;;;;;;;4.72;2.33;;;20.40;66.80;;;;;;5062892;28;20020;-63
2023/08/19 02:14:30;;;;;;;4.20;2.10;;;20.40;67.00;;;;;;5068751;28;20034;-63
2023/08/19 02:16:56;;;;;;;10.38;2.50;;;20.40;67.10;;;;;;5072601;28;20031;-63
2023/08/19 02:19:22;;;;;;;4.80;2.33;;;20.40;67.10;;;;;;5067299;28;20514;-63
2023/08/19 02:21:47;;;;;;;5.93;2.50;;;20.30;67.20;;;;;;5061625;28;20064;-61
2023/08/19 02:24:13;;;;;;;5.10;2.40;;;20.30;67.20;;;;;;5063950;28;20053;-63
2023/08/19 02:26:39;;;;;;;3.22;1.92;;;20.30;67.20;;;;;;5066922;28;20032;-63
2023/08/19 02:29:04;;;;;;;8.00;2.50;;;20.30;67.20;;;;;;5007095;28;20536;-63
2023/08/19 02:31:30;;;;;;;5.13;2.20;;;20.30;67.20;;;;;;5057228;28;20028;-63
2023/08/19 02:33:56;;;;;;;5.70;2.17;;;20.30;67.20;;;;;;5062139;28;20040;-62
2023/08/19 02:36:22;;;;;;;3.85;2.10;;;20.30;67.40;;;;;;5069821;28;20027;-62
2023/08/19 02:38:48;;;;;;;3.42;2.20;;;20.30;67.40;;;;;;5057716;28;20356;-62
2023/08/19 02:41:14;;;;;;;4.20;2.33;;;20.20;67.50;;;;;;5060729;28;20032;-61
2023/08/19 02:43:39;;;;;;;7.47;2.58;;;20.20;67.60;;;;;;5059748;28;20683;-62
2023/08/19 02:46:05;;;;;;;6.88;2.70;;;20.20;67.50;;;;;;5065193;28;20037;-63
2023/08/19 02:48:31;;;;;;;3.83;2.35;;;20.20;67.50;;;;;;5057546;28;20039;-63
2023/08/19 02:50:56;;;;;;;3.10;2.10;;;20.10;67.40;;;;;;5061512;28;20032;-62
2023/08/19 02:53:22;;;;;;;5.13;2.38;;;20.20;67.50;;;;;;5066909;28;20103;-61
2023/08/19 02:55:52;;;;;;;8.45;2.42;;;20.10;67.50;;;;;;5074952;28;20463;-62
2023/08/19 02:58:18;;;;;;;5.50;2.22;;;20.10;67.80;;;;;;5069919;28;20028;-63
2023/08/19 03:00:46;;;;;;;4.82;2.42;;;20.10;67.70;;;;;;5061068;28;20044;-62
2023/08/19 03:03:12;;;;;;;3.40;2.25;;;20.00;67.70;;;;;;5061615;28;20100;-62
2023/08/19 03:05:38;;;;;;;3.72;2.25;;;20.00;67.60;;;;;;5070501;28;20122;-62
2023/08/19 03:10:47;;;;;;;3.25;2.08;;;20.00;67.90;;;;;;5062596;28;20472;-62
2023/08/19 03:13:13;;;;;;;3.75;2.17;;;20.00;68.00;;;;;;5067022;28;20036;-61
2023/08/19 03:15:39;;;;;;;2.60;2.22;;;19.90;67.90;;;;;;5061174;28;20472;-62
2023/08/19 03:18:05;;;;;;;3.22;2.15;;;19.90;67.70;;;;;;5064668;28;20033;-61
2023/08/19 03:20:30;;;;;;;6.03;2.53;;;19.90;67.80;;;;;;5067571;28;20029;-63
2023/08/19 03:22:56;;;;;;;5.78;2.53;;;19.90;68.10;;;;;;5062154;28;20032;-62
2023/08/19 03:25:22;;;;;;;10.13;2.67;;;19.90;68.20;;;;;;5060989;28;20025;-61
2023/08/19 03:27:47;;;;;;;3.85;2.50;;;19.80;68.10;;;;;;5063913;28;20127;-62
2023/08/19 03:30:13;;;;;;;7.28;2.50;;;19.80;68.10;;;;;;5062903;28;20467;-62
2023/08/19 03:32:39;;;;;;;6.43;2.42;;;19.80;68.10;;;;;;5062735;28;20107;-62
2023/08/19 03:35:05;;;;;;;5.30;2.45;;;19.80;68.10;;;;;;5065002;28;20502;-62
2023/08/19 03:37:30;;;;;;;6.60;2.45;;;19.80;68.20;;;;;;5060868;28;20036;-62
2023/08/19 03:39:56;;;;;;;5.47;2.63;;;19.80;68.20;;;;;;5063736;28;20029;-62
2023/08/19 03:42:22;;;;;;;4.03;2.25;;;19.80;68.30;;;;;;5062661;28;20067;-62
2023/08/19 03:44:48;;;;;;;3.63;2.70;;;19.80;68.30;;;;;;5066034;28;20035;-62
2023/08/19 03:47:14;;;;;;;3.88;2.38;;;19.80;68.30;;;;;;5063124;28;20103;-63
2023/08/19 03:49:40;;;;;;;9.98;2.53;;;19.70;68.20;;;;;;5065575;28;20040;-63
2023/08/19 03:52:06;;;;;;;4.03;2.25;;;19.70;68.30;;;;;;5059713;28;20083;-63
2023/08/19 03:54:32;;;;;;;3.47;2.30;;;19.70;68.30;;;;;;5063722;28;20025;-62
2023/08/19 03:56:58;;;;;;;5.57;2.50;;;19.70;68.20;;;;;;5058782;28;20033;-64
2023/08/19 03:59:24;;;;;;;4.65;2.20;;;19.70;68.40;;;;;;5060319;28;20025;-62
2023/08/19 04:01:50;;;;;;;3.80;2.38;;;19.60;68.50;;;;;;5056769;28;20040;-62
2023/08/19 04:04:16;;;;;;;3.00;2.20;;;19.60;68.30;;;;;;5064579;28;20024;-62
2023/08/19 04:06:41;;;;;;;6.95;2.55;;;19.60;68.30;;;;;;5057214;28;20041;-63
2023/08/19 04:09:08;;;;;;;6.05;2.70;;;19.60;68.50;;;;;;5063102;28;20178;-63
2023/08/19 04:11:33;;;;;;;4.53;2.40;;;19.60;68.60;;;;;;5061687;28;20032;-62
2023/08/19 04:13:59;;;;;;;4.60;2.40;;;19.60;68.80;;;;;;5059928;28;20035;-62
2023/08/19 04:16:25;;;;;;;3.30;2.40;;;19.60;68.80;;;;;;5063905;28;20021;-63
2023/08/19 04:18:51;;;;;;;4.05;2.63;;;19.50;68.70;;;;;;5061768;28;20124;-61
2023/08/19 04:21:17;;;;;;;2.78;2.50;;;19.60;68.80;;;;;;5050701;28;20155;-64
2023/08/19 04:23:42;;;;;;;2.58;2.08;;;19.50;68.70;;;;;;5047732;28;20510;-62
2023/08/19 04:26:08;;;;;;;2.55;2.35;;;19.60;68.70;;;;;;5048185;28;20029;-63
2023/08/19 04:28:34;;;;;;;4.82;2.45;;;19.50;68.50;;;;;;5049776;28;20037;-62
2023/08/19 04:31:04;;;;;;;2.60;2.40;;;19.50;68.50;;;;;;5054722;28;20519;-62
2023/08/19 04:33:30;;;;;;;4.93;2.78;;;19.50;68.80;;;;;;5055202;28;20563;-63
2023/08/19 04:35:56;;;;;;;5.40;2.75;;;19.50;68.60;;;;;;5047405;28;20195;-62
2023/08/19 04:38:21;;;;;;;4.63;2.38;;;19.50;68.80;;;;;;5050604;28;20116;-62
2023/08/19 04:40:47;;;;;;;5.28;2.53;;;19.50;68.90;;;;;;5051921;28;20155;-62
2023/08/19 04:43:12;;;;;;;6.55;2.60;;;19.50;69.10;;;;;;5051631;28;20059;-62
2023/08/19 04:45:38;;;;;;;4.97;2.72;;;19.50;69.20;;;;;;5048785;28;20028;-62
2023/08/19 04:48:05;;;;;;;4.88;2.67;;;19.50;69.30;;;;;;5046695;28;20029;-62
2023/08/19 04:50:32;;;;;;;11.32;2.95;;;19.50;69.30;;;;;;5054757;28;20064;-62
2023/08/19 04:52:57;;;;;;;7.35;2.78;;;19.50;69.40;;;;;;5049541;28;20041;-62
2023/08/19 04:55:23;;;;;;;5.30;2.70;;;19.50;69.50;;;;;;5058411;28;20028;-62
2023/08/19 04:57:49;;;;;;;4.28;2.30;;;19.50;69.60;;;;;;5052592;28;20160;-62
2023/08/19 05:00:15;;;;;;;4.90;2.80;;;19.50;69.70;;;;;;5044888;28;20371;-62
2023/08/19 05:02:41;;;;;;;4.43;2.75;;;19.60;69.70;;;;;;5055387;28;20040;-62
2023/08/19 05:05:07;;;;;;;6.75;2.72;;;19.60;69.80;;;;;;5053333;28;20021;-62
2023/08/19 05:07:33;;;;;;;8.02;2.55;;;19.60;69.90;;;;;;5047705;28;20048;-63
2023/08/19 05:09:58;;;;;;;4.28;2.63;;;19.70;70.00;;;;;;5050577;28;20115;-63
2023/08/19 05:12:24;;;;;;;7.38;3.03;;;19.70;70.10;;;;;;5046752;28;20017;-62
2023/08/19 05:14:51;;;;;;;9.15;3.03;;;19.80;70.20;;;;;;5050636;28;20065;-62
2023/08/19 05:17:20;;;;;;;8.00;2.65;;;19.80;70.30;;;;;;5048805;28;20039;-62
2023/08/19 05:19:45;;;;;;;9.90;2.90;;;19.90;70.30;;;;;;5049923;28;20539;-62
2023/08/19 05:22:11;;;;;;;6.10;3.13;;;19.90;70.40;;;;;;5052081;28;20116;-61
2023/08/19 05:24:37;;;;;;;4.70;2.55;;;20.00;70.40;;;;;;5050923;28;20098;-62
2023/08/19 05:27:02;;;;;;;4.95;2.72;;;20.10;70.40;;;;;;5049797;28;20467;-62
2023/08/19 05:29:28;;;;;;;4.82;2.63;;;20.20;70.40;;;;;;5045557;28;20203;-62
2023/08/19 05:31:55;;;;;;;5.38;2.63;;;20.30;71.00;;;;;;5044053;28;20037;-62
2023/08/19 05:34:21;;;;;;;3.20;2.40;;;20.40;70.20;;;;;;5044042;28;20086;-62
2023/08/19 05:36:47;;;;;;;4.30;2.70;;;20.50;70.00;;;;;;5049539;28;20064;-62
2023/08/19 05:39:13;;;;;;;6.70;2.45;;;20.60;69.90;;;;;;5046451;28;20028;-61
2023/08/19 05:41:38;;;;;;;8.90;2.90;;;20.60;69.70;;;;;;5048847;28;20088;-63
2023/08/19 05:44:05;;;;;;;5.47;2.47;;;20.70;69.60;;;;;;5051019;28;20025;-63
2023/08/19 05:46:30;;;;;;;6.57;3.13;;;20.80;69.60;;;;;;5042483;28;20044;-62
2023/08/19 05:48:56;;;;;;;5.18;2.83;;;20.90;69.50;;;;;;5049479;28;20480;-62
2023/08/19 05:51:22;;;;;;;11.93;2.75;;;21.00;69.50;;;;;;5047918;28;20395;-62
2023/08/19 05:53:47;;;;;;;5.05;2.67;;;21.10;69.40;;;;;;5048710;28;20029;-63
2023/08/19 05:56:13;;;;;;;5.35;2.45;;;21.20;69.20;;;;;;5051274;28;20087;-63
2023/08/19 05:58:39;;;;;;;4.80;2.65;;;21.30;69.00;;;;;;5046107;28;20029;-63
2023/08/19 06:01:08;;;;;;;8.73;3.08;;;21.40;68.90;;;;;;5047547;28;20020;-62
2023/08/19 06:03:34;;;;;;;11.20;3.22;;;21.50;68.80;;;;;;5045287;28;20078;-62
2023/08/19 06:06:06;;;;;;;6.60;3.05;;;21.50;68.80;;;;;;5045934;28;20064;-62
2023/08/19 06:08:32;;;;;;;9.57;3.00;;;21.60;68.80;;;;;;5048132;28;20025;-63
2023/08/19 06:11:04;;;;;;;12.35;3.00;;;21.70;68.60;;;;;;5047573;28;20057;-62
2023/08/19 06:13:30;;;;;;;6.38;2.92;;;21.80;68.40;;;;;;5050333;28;20071;-63
2023/08/19 06:15:57;;;;;;;10.98;2.88;;;21.90;68.30;;;;;;5044488;28;20488;-62
2023/08/19 06:18:22;;;;;;;5.07;2.75;;;22.00;68.20;;;;;;5048899;28;20044;-62
2023/08/19 06:20:50;;;;;;;5.90;2.90;;;22.10;68.10;;;;;;5044647;28;20436;-62
2023/08/19 06:23:17;;;;;;;5.03;2.63;;;22.20;68.60;;;;;;5046424;28;20056;-62
2023/08/19 06:25:44;;;;;;;8.23;2.88;;;22.30;67.80;;;;;;5041606;28;20029;-64
2023/08/19 06:28:09;;;;;;;10.43;2.90;;;22.40;67.70;;;;;;5049557;28;20040;-63
2023/08/19 06:30:35;;;;;;;4.80;2.97;;;22.60;67.50;;;;;;5041953;28;20059;-62
2023/08/19 06:33:01;;;;;;;4.82;3.00;;;22.60;67.20;;;;;;5040523;28;20036;-62
2023/08/19 06:35:27;;;;;;;4.05;3.00;;;22.70;66.90;;;;;;5046190;28;20127;-63
2023/08/19 06:37:55;;;;;;;12.70;3.60;;;22.80;66.70;;;;;;5046406;28;20032;-62
2023/08/19 06:40:23;;;;;;;5.03;3.88;;;22.90;66.30;;;;;;5044340;28;20032;-62
2023/08/19 06:42:49;;;;;;;11.55;4.07;;;23.00;66.20;;;;;;5041840;28;20337;-62
2023/08/19 06:45:19;;;;;;;7.07;3.50;;;23.10;66.20;;;;;;5045184;28;20498;-62
2023/08/19 06:47:47;;;;;;;9.60;4.15;;;23.10;66.00;;;;;;5040322;28;20033;-62
2023/08/19 06:50:14;;;;;;;8.88;3.70;;;23.30;65.90;;;;;;5048430;28;20663;-63
2023/08/19 06:52:40;;;;;;;12.57;4.13;;;23.40;65.60;;;;;;5043237;28;20047;-62
2023/08/19 06:55:06;;;;;;;8.55;4.00;;;23.50;65.50;;;;;;5045378;28;20115;-63
2023/08/19 06:57:53;;;;;;;7.60;3.92;;;23.60;65.40;;;;;;5051994;28;20115;-64
2023/08/19 07:00:21;;;;;;;7.22;3.65;;;23.70;64.90;;;;;;5046000;28;20052;-62
2023/08/19 07:02:47;;;;;;;8.05;3.95;;;23.80;65.00;;;;;;5043910;28;20377;-62
2023/08/19 07:05:18;;;;;;;6.18;3.40;;;23.90;65.10;;;;;;5043552;28;20484;-63
2023/08/19 07:07:48;;;;;;;7.18;3.80;;;24.00;64.90;;;;;;5045911;28;20021;-63
2023/08/19 07:10:19;;;;;;;4.47;3.58;;;24.20;65.00;;;;;;5042904;28;20376;-62
2023/08/19 07:12:45;;;;;;;6.53;3.80;;;24.40;64.40;;;;;;5046437;28;20419;-63
2023/08/19 07:15:12;;;;;;;5.95;3.90;;;24.50;64.30;;;;;;5048252;28;20036;-62
2023/08/19 07:17:45;;;;;;;10.43;4.20;;;24.60;64.10;;;;;;5044531;28;20029;-62
2023/08/19 07:20:15;;;;;;;6.70;4.20;;;24.80;63.70;;;;;;5044892;28;20488;-62
2023/08/19 07:22:46;;;;;;;4.70;3.63;;;24.90;63.10;;;;;;5043919;28;20500;-63
2023/08/19 07:25:13;;;;;;;4.85;3.45;;;25.00;62.90;;;;;;5042008;28;20144;-62
2023/08/19 07:27:39;;;;;;;5.72;4.10;;;25.10;62.70;;;;;;4949303;28;20033;-62
2023/08/19 07:30:05;;;;;;;11.35;3.70;;;25.30;62.10;;;;;;5042662;28;20099;-63
2023/08/19 07:32:32;;;;;;;10.20;4.07;;;25.40;61.90;;;;;;5041716;28;20027;-62
2023/08/19 07:34:58;;;;;;;5.78;4.22;;;25.40;61.40;;;;;;5045984;28;20119;-63
2023/08/19 07:37:24;;;;;;;8.05;4.03;;;25.60;61.30;;;;;;5045854;28;20124;-62
2023/08/19 07:39:53;;;;;;;8.77;3.45;;;25.70;60.90;;;;;;5043416;28;20068;-61
2023/08/19 07:42:19;;;;;;;4.43;3.40;;;25.80;60.90;;;;;;5044820;28;20111;-61
2023/08/19 07:44:44;;;;;;;6.40;3.80;;;26.00;60.70;;;;;;5042117;28;20488;-61
2023/08/19 07:47:10;;;;;;;5.55;3.78;;;26.10;60.20;;;;;;5045208;28;20033;-60
2023/08/19 07:49:37;;;;;;;6.38;3.50;;;26.20;59.90;;;;;;5041273;28;20043;-63
2023/08/19 07:52:03;;;;;;;5.88;3.38;;;26.30;60.40;;;;;;5044869;28;20025;-63
2023/08/19 07:54:29;;;;;;;6.75;3.70;;;26.40;59.70;;;;;;5040500;28;20802;-62
2023/08/19 07:56:57;;;;;;;6.03;3.53;;;26.50;59.70;;;;;;5053688;28;20472;-64
2023/08/19 07:59:26;;;;;;;6.00;3.25;;;26.60;59.30;;;;;;5052479;28;20037;-64
2023/08/19 08:01:54;;;;;;;5.07;3.42;;;26.80;59.10;;;;;;5051456;28;20136;-63
2023/08/19 08:04:21;;;;;;;6.15;3.90;;;26.90;58.80;;;;;;5051284;28;20017;-65
2023/08/19 08:06:50;;;;;;;9.30;3.65;;;27.00;58.70;;;;;;5047310;28;20037;-64
2023/08/19 08:09:15;;;;;;;5.20;3.58;;;27.10;58.60;;;;;;5046381;28;20164;-64
2023/08/19 08:11:43;;;;;;;4.78;3.10;;;27.20;58.70;;;;;;5044630;28;20036;-63
2023/08/19 08:14:09;;;;;;;5.88;3.15;;;27.30;58.50;;;;;;5043701;28;20036;-65
2023/08/19 08:16:35;;;;;;;4.72;3.10;;;27.40;58.40;;;;;;5045321;28;20041;-65
2023/08/19 08:19:01;;;;;;;4.63;2.80;;;27.50;58.10;;;;;;5044776;28;20534;-62
2023/08/19 08:21:26;;;;;;;6.93;3.25;;;27.70;58.10;;;;;;5042060;28;20163;-63
2023/08/19 08:23:54;;;;;;;4.38;2.83;;;27.80;57.90;;;;;;5044800;28;20025;-63
2023/08/19 08:26:20;;;;;;;4.95;2.95;;;27.90;57.70;;;;;;5052623;28;20024;-63
2023/08/19 08:28:46;;;;;;;5.13;3.38;;;28.00;57.60;;;;;;5050071;28;20029;-64
2023/08/19 08:31:11;;;;;;;5.40;2.85;;;28.10;57.50;;;;;;5053161;28;20013;-62
2023/08/19 08:33:37;;;;;;;4.97;2.97;;;28.20;57.70;;;;;;5054702;28;20029;-63
2023/08/19 08:36:03;;;;;;;3.80;2.65;;;28.30;57.40;;;;;;5057603;28;20032;-64
2023/08/19 08:38:29;;;;;;;9.25;2.83;;;28.40;56.90;;;;;;5049675;28;20021;-64
2023/08/19 08:40:55;;;;;;;5.53;2.42;;;28.60;56.90;;;;;;5049891;28;20025;-63
2023/08/19 08:43:21;;;;;;;11.13;3.30;;;28.70;56.60;;;;;;5047588;28;20098;-64
2023/08/19 08:45:50;;;;;;;5.72;2.75;;;28.80;56.60;;;;;;5047650;28;20029;-65
2023/08/19 08:48:17;;;;;;;6.35;3.03;;;28.90;56.40;;;;;;5052222;28;20031;-64
2023/08/19 08:50:43;;;;;;;5.82;2.72;;;29.00;56.00;;;;;;5057569;28;20043;-63
2023/08/19 08:53:12;;;;;;;6.35;2.92;;;29.20;55.30;;;;;;5052643;28;20112;-64
2023/08/19 08:55:38;;;;;;;9.60;3.10;;;29.30;54.90;;;;;;5046451;28;20059;-65
2023/08/19 08:58:04;;;;;;;4.32;2.30;;;29.40;54.70;;;;;;5049926;28;20021;-65
2023/08/19 09:00:31;;;;;;;4.40;2.40;;;29.50;54.40;;;;;;5048478;28;20040;-65
2023/08/19 09:02:57;;;;;;;7.03;2.47;;;29.60;54.20;;;;;;5047750;28;20023;-65
2023/08/19 09:05:25;;;;;;;4.53;2.88;;;29.70;53.80;;;;;;5044462;28;20104;-65
2023/08/19 09:07:53;;;;;;;6.25;3.00;;;29.80;53.40;;;;;;5046191;28;20032;-65
2023/08/19 09:10:23;;;;;;;6.10;2.63;;;29.90;53.90;;;;;;5055018;28;20124;-64
2023/08/19 09:12:56;;;;;;;8.18;3.10;;;30.00;53.40;;;;;;5045394;28;20509;-65
2023/08/19 09:15:23;;;;;;;6.03;2.90;;;30.20;53.00;;;;;;5052627;28;20020;-64
2023/08/19 09:17:49;;;;;;;4.38;2.13;;;30.30;53.50;;;;;;5053600;28;20040;-64
2023/08/19 09:20:18;;;;;;;5.05;2.50;;;30.40;53.20;;;;;;5046673;28;20491;-64
2023/08/19 09:22:44;;;;;;;6.78;2.78;;;30.50;52.60;;;;;;5051329;28;20040;-64
2023/08/19 09:25:14;;;;;;;6.88;2.72;;;30.60;52.30;;;;;;5052660;28;20029;-64
2023/08/19 09:27:41;;;;;;;5.28;2.25;;;30.70;52.20;;;;;;5044123;28;20021;-65
2023/08/19 09:30:07;;;;;;;5.88;2.35;;;30.80;52.40;;;;;;5040995;28;20415;-65
2023/08/19 09:32:35;;;;;;;3.35;2.20;;;30.90;51.60;;;;;;5050514;28;20029;-64
2023/08/19 09:35:05;;;;;;;6.72;2.75;;;31.00;51.60;;;;;;5051414;28;20037;-64
2023/08/19 09:37:32;;;;;;;4.65;2.58;;;31.10;51.60;;;;;;5048936;28;20029;-64
2023/08/19 09:39:58;;;;;;;5.38;3.13;;;31.20;51.40;;;;;;5052550;28;20097;-65
2023/08/19 09:42:25;;;;;;;8.50;3.28;;;31.30;50.70;;;;;;5045963;28;20032;-64
2023/08/19 09:44:52;;;;;;;7.82;4.13;;;31.40;50.90;;;;;;5045556;28;20537;-64
2023/08/19 09:47:17;;;;;;;7.03;3.10;;;31.50;50.60;;;;;;5050579;28;20031;-64
2023/08/19 09:49:43;;;;;;;5.60;2.80;;;31.60;50.30;;;;;;5048042;28;20407;-64
2023/08/19 09:52:18;;;;;;;8.55;2.22;;;31.70;49.70;;;;;;5049106;28;20094;-65
2023/08/19 09:54:52;;;;;;;6.30;2.42;;;31.80;48.70;;;;;;5044232;28;20446;-65
2023/08/19 09:57:18;;;;;;;6.70;1.80;;;31.90;48.50;;;;;;5046946;28;20024;-65
2023/08/19 09:59:44;;;;;;;5.90;2.30;;;32.00;48.90;;;;;;5044914;28;20033;-64
2023/08/19 10:02:12;;;;;;;6.50;1.77;;;32.10;48.50;;;;;;5052387;28;20033;-65
2023/08/19 10:04:37;;;;;;;5.50;2.35;;;32.20;48.00;;;;;;5051916;28;20024;-65
2023/08/19 10:07:06;;;;;;;4.82;2.05;;;32.20;47.20;;;;;;5047078;28;20476;-64
2023/08/19 10:09:33;;;;;;;5.57;2.78;;;32.30;47.40;;;;;;5046261;28;20048;-65
2023/08/19 10:12:01;;;;;;;6.35;2.92;;;32.40;47.80;;;;;;5048695;28;20025;-65
2023/08/19 10:14:31;;;;;;;5.97;2.85;;;32.50;47.60;;;;;;5043091;28;20025;-63
2023/08/19 10:17:02;;;;;;;4.63;2.30;;;32.50;47.80;;;;;;5045073;28;20025;-64
2023/08/19 10:19:31;;;;;;;9.68;2.42;;;32.60;47.60;;;;;;5046149;28;20031;-65
2023/08/19 10:21:59;;;;;;;4.55;2.60;;;32.70;47.50;;;;;;5042114;28;20025;-63
2023/08/19 10:24:25;;;;;;;6.20;2.22;;;32.70;47.30;;;;;;5046989;28;20021;-65
2023/08/19 10:26:51;;;;;;;4.28;2.13;;;32.80;47.60;;;;;;5053833;28;20025;-64
2023/08/19 10:29:16;;;;;;;6.65;2.00;;;32.80;47.50;;;;;;5050242;28;20411;-65
2023/08/19 10:31:42;;;;;;;6.82;2.13;;;32.90;47.20;;;;;;5052539;28;20036;-65
2023/08/19 10:34:18;;;;;;;7.38;2.60;;;33.00;46.30;;;;;;5050271;28;20056;-65
2023/08/19 10:36:43;;;;;;;6.28;2.20;;;33.10;46.20;;;;;;5039775;28;20158;-65
2023/08/19 10:39:18;;;;;;;6.00;2.20;;;33.20;46.10;;;;;;5047944;28;20060;-64
2023/08/19 10:41:44;;;;;;;9.57;2.28;;;33.30;46.40;;;;;;5049663;28;20082;-65
2023/08/19 10:44:13;;;;;;;5.95;2.10;;;33.40;46.10;;;;;;5048030;28;20021;-66
2023/08/19 10:46:38;;;;;;;7.50;2.58;;;33.50;45.00;;;;;;5051267;28;20395;-66
2023/08/19 10:49:12;;;;;;;5.10;2.17;;;33.60;45.00;;;;;;5050673;28;20041;-64
2023/08/19 10:52:07;;;;;;;5.20;2.10;;;33.60;44.90;;;;;;5041975;28;20059;-65
2023/08/19 10:54:40;;;;;;;4.28;2.40;;;33.80;45.80;;;;;;5045102;28;20028;-65
2023/08/19 10:57:23;;;;;;;10.68;2.60;;;33.90;44.10;;;;;;5042770;28;20025;-65
2023/08/19 10:59:59;;;;;;;4.20;2.15;;;33.90;45.00;;;;;;5048324;28;20037;-65
2023/08/19 11:02:27;;;;;;;5.55;2.30;;;34.10;43.90;;;;;;5041298;28;20055;-65
2023/08/19 11:04:53;;;;;;;5.32;1.95;;;34.10;44.70;;;;;;5046479;28;20039;-65
2023/08/19 11:07:20;;;;;;;3.28;2.00;;;34.20;44.60;;;;;;5045485;28;20068;-65
2023/08/19 11:09:48;;;;;;;6.28;1.90;;;34.30;45.20;;;;;;5044782;28;20063;-65
2023/08/19 11:12:21;;;;;;;5.80;2.10;;;34.30;43.40;;;;;;5046842;28;20025;-65
2023/08/19 11:14:48;;;;;;;6.00;2.28;;;34.40;42.10;;;;;;5045639;28;20456;-65
2023/08/19 11:17:15;;;;;;;7.72;2.08;;;34.50;42.60;;;;;;5043708;28;20025;-65
2023/08/19 11:19:40;;;;;;;4.00;2.05;;;34.50;42.70;;;;;;5045874;28;20422;-64
2023/08/19 11:22:10;;;;;;;4.40;2.03;;;34.60;42.10;;;;;;5044109;28;20096;-66
2023/08/19 11:24:36;;;;;;;5.78;1.95;;;34.60;41.70;;;;;;5041451;28;20405;-65
2023/08/19 11:27:02;;;;;;;2.83;1.80;;;34.70;41.80;;;;;;5052111;28;20029;-65
2023/08/19 11:29:28;;;;;;;6.18;2.15;;;34.70;41.60;;;;;;5047409;28;20033;-64
2023/08/19 11:31:56;;;;;;;5.63;2.15;;;34.80;41.20;;;;;;5045480;28;20126;-65
2023/08/19 11:34:26;;;;;;;5.15;2.30;;;34.80;40.30;;;;;;5053162;28;20047;-65
2023/08/19 11:36:51;;;;;;;5.45;2.00;;;34.90;40.30;;;;;;5046202;28;20029;-65
2023/08/19 11:39:17;;;;;;;6.78;2.10;;;35.00;41.00;;;;;;5048728;28;20118;-66
2023/08/19 11:41:45;;;;;;;8.98;1.98;;;35.00;41.10;;;;;;5038893;28;20032;-64
2023/08/19 11:44:11;;;;;;;5.05;1.98;;;35.10;41.00;;;;;;5046162;28;20032;-64
2023/08/19 11:46:37;;;;;;;7.07;2.35;;;35.20;40.40;;;;;;5052119;28;20032;-66
2023/08/19 11:49:10;;;;;;;7.55;2.47;;;35.30;40.40;;;;;;5041238;28;20041;-65
2023/08/19 11:51:39;;;;;;;5.95;2.20;;;35.40;38.80;;;;;;5052970;28;20033;-64
2023/08/19 11:54:07;;;;;;;10.95;1.90;;;35.50;39.70;;;;;;5050229;28;20048;-65
2023/08/19 11:56:52;;;;;;;4.72;2.10;;;35.50;39.00;;;;;;5052997;28;20049;-65
2023/08/19 11:59:27;;;;;;;4.72;2.08;;;35.70;38.40;;;;;;5046326;28;20033;-65
2023/08/19 12:01:53;;;;;;;6.85;2.22;;;35.80;38.50;;;;;;5047242;28;20067;-66
2023/08/19 12:04:18;;;;;;;5.25;2.00;;;35.90;37.70;;;;;;5050031;28;20052;-66
2023/08/19 12:06:47;;;;;;;10.63;2.30;;;35.90;37.00;;;;;;5046583;28;20040;-66
2023/08/19 12:09:13;;;;;;;6.57;2.08;;;36.00;36.90;;;;;;5052572;28;20546;-66
2023/08/19 12:11:40;;;;;;;3.60;2.03;;;36.00;37.10;;;;;;5054522;28;20116;-65
2023/08/19 12:14:06;;;;;;;10.68;2.10;;;36.00;37.70;;;;;;5040786;28;20017;-66
2023/08/19 12:16:32;;;;;;;6.93;2.30;;;36.10;37.30;;;;;;5051396;28;20383;-66
2023/08/19 12:18:58;;;;;;;12.43;2.35;;;36.10;36.60;;;;;;5054832;28;20025;-66
2023/08/19 12:21:25;;;;;;;7.00;2.33;;;36.10;36.20;;;;;;5047985;28;20056;-65
2023/08/19 12:23:50;;;;;;;6.22;2.10;;;36.10;36.70;;;;;;5050223;28;20126;-65
2023/08/19 12:26:16;;;;;;;9.57;2.67;;;36.20;36.50;;;;;;5048513;28;20128;-66
2023/08/19 12:28:43;;;;;;;5.50;1.73;;;36.20;36.20;;;;;;5043860;28;20396;-65
2023/08/19 12:31:09;;;;;;;4.53;1.98;;;36.20;35.60;;;;;;5051502;28;20059;-65
2023/08/19 12:33:36;;;;;;;7.10;2.17;;;36.30;36.10;;;;;;5047241;28;20407;-65
2023/08/19 12:36:02;;;;;;;7.18;1.95;;;36.30;35.90;;;;;;5042092;28;20376;-66
2023/08/19 12:38:28;;;;;;;5.70;2.30;;;36.40;35.50;;;;;;5049524;28;20120;-65
2023/08/19 12:40:53;;;;;;;10.85;1.70;;;36.50;35.60;;;;;;5048012;28;20504;-66
2023/08/19 12:43:19;;;;;;;7.32;1.95;;;36.50;35.60;;;;;;5047183;28;20107;-64
2023/08/19 12:45:45;;;;;;;8.15;2.00;;;36.60;34.20;;;;;;5044951;28;20025;-65
2023/08/19 12:48:11;;;;;;;7.45;2.35;;;36.70;34.90;;;;;;5048009;28;20104;-65